sensor_id;sensor_type;location;lat;lon;timestamp;pressure;altitude;pressure_sealevel;temperature;humidity
20368;BME280;10343;52.402;9.796;2023-07-30T00:02:20;100188.84;;;21.50;96.65
20368;BME280;10343;52.402;9.796;2023-07-30T00:04:57;100188.31;;;21.69;95.95
20368;BME280;10343;52.402;9.796;2023-07-30T00:07:27;100186.75;;;22.23;93.68
20368;BME280;10343;52.402;9.796;2023-07-30T00:09:58;100190.56;;;22.32;91.83
20368;BME280;10343;52.402;9.796;2023-07-30T00:12:27;100200.91;;;22.38;90.57
20368;BME280;10343;52.402;9.796;2023-07-30T00:14:55;100197.44;;;22.48;94.49
20368;BME280;10343;52.402;9.796;2023-07-30T00:17:24;100200.72;;;22.17;92.49
20368;BME280;10343;52.402;9.796;2023-07-30T00:19:53;100196.56;;;22.13;91.44
20368;BME280;10343;52.402;9.796;2023-07-30T00:22:22;100202.47;;;22.18;90.23
20368;BME280;10343;52.402;9.796;2023-07-30T00:24:50;100200.59;;;22.08;91.63
20368;BME280;10343;52.402;9.796;2023-07-30T00:27:18;100198.78;;;22.08;92.57
20368;BME280;10343;52.402;9.796;2023-07-30T00:29:49;100191.72;;;22.41;94.37
20368;BME280;10343;52.402;9.796;2023-07-30T00:32:20;100191.91;;;22.27;92.85
20368;BME280;10343;52.402;9.796;2023-07-30T00:34:50;100183.09;;;22.25;94.53
20368;BME280;10343;52.402;9.796;2023-07-30T00:37:20;100197.78;;;21.98;96.07
20368;BME280;10343;52.402;9.796;2023-07-30T00:39:50;100186.97;;;21.75;96.33
20368;BME280;10343;52.402;9.796;2023-07-30T00:42:20;100187.97;;;21.85;94.29
20368;BME280;10343;52.402;9.796;2023-07-30T00:44:50;100193.53;;;21.60;98.02
20368;BME280;10343;52.402;9.796;2023-07-30T00:47:17;100183.34;;;21.28;100.00
20368;BME280;10343;52.402;9.796;2023-07-30T00:49:46;100190.63;;;21.63;99.33
20368;BME280;10343;52.402;9.796;2023-07-30T00:52:18;100192.59;;;21.72;100.00
20368;BME280;10343;52.402;9.796;2023-07-30T00:54:47;100194.56;;;21.70;98.83
20368;BME280;10343;52.402;9.796;2023-07-30T00:57:20;100203.88;;;21.77;97.67
20368;BME280;10343;52.402;9.796;2023-07-30T01:00:04;100198.63;;;21.51;99.39
20368;BME280;10343;52.402;9.796;2023-07-30T01:02:36;100195.94;;;21.51;100.00
20368;BME280;10343;52.402;9.796;2023-07-30T01:05:09;100202.69;;;21.93;99.80
20368;BME280;10343;52.402;9.796;2023-07-30T01:07:39;100206.84;;;21.74;99.00
20368;BME280;10343;52.402;9.796;2023-07-30T01:10:07;100204.97;;;21.63;99.01
20368;BME280;10343;52.402;9.796;2023-07-30T01:12:37;100206.19;;;21.70;98.04
20368;BME280;10343;52.402;9.796;2023-07-30T01:15:06;100208.03;;;21.59;98.92
20368;BME280;10343;52.402;9.796;2023-07-30T01:17:36;100209.50;;;21.63;98.50
20368;BME280;10343;52.402;9.796;2023-07-30T01:20:05;100212.47;;;21.71;97.35
20368;BME280;10343;52.402;9.796;2023-07-30T01:22:35;100224.69;;;21.64;99.65
20368;BME280;10343;52.402;9.796;2023-07-30T01:25:03;100228.25;;;21.64;97.86
20368;BME280;10343;52.402;9.796;2023-07-30T01:27:34;100231.97;;;21.86;97.32
20368;BME280;10343;52.402;9.796;2023-07-30T01:30:10;100231.13;;;21.85;97.94
20368;BME280;10343;52.402;9.796;2023-07-30T01:32:41;100238.50;;;21.83;97.19
20368;BME280;10343;52.402;9.796;2023-07-30T01:35:10;100243.09;;;21.59;98.10
20368;BME280;10343;52.402;9.796;2023-07-30T01:37:43;100235.19;;;21.55;98.16
20368;BME280;10343;52.402;9.796;2023-07-30T01:40:12;100238.25;;;21.98;97.63
20368;BME280;10343;52.402;9.796;2023-07-30T01:42:41;100244.75;;;21.84;95.29
20368;BME280;10343;52.402;9.796;2023-07-30T01:45:10;100238.59;;;21.46;98.96
20368;BME280;10343;52.402;9.796;2023-07-30T01:47:40;100235.34;;;21.30;100.00
20368;BME280;10343;52.402;9.796;2023-07-30T01:50:13;100236.94;;;21.57;100.00
20368;BME280;10343;52.402;9.796;2023-07-30T01:52:44;100241.00;;;21.62;100.00
20368;BME280;10343;52.402;9.796;2023-07-30T01:55:12;100236.75;;;21.71;100.00
20368;BME280;10343;52.402;9.796;2023-07-30T01:57:42;100248.97;;;21.64;99.76
20368;BME280;10343;52.402;9.796;2023-07-30T02:00:11;100246.31;;;21.75;100.00
20368;BME280;10343;52.402;9.796;2023-07-30T02:02:39;100247.72;;;21.32;100.00
20368;BME280;10343;52.402;9.796;2023-07-30T02:05:08;100247.97;;;21.53;100.00
20368;BME280;10343;52.402;9.796;2023-07-30T02:07:38;100245.59;;;21.00;100.00
20368;BME280;10343;52.402;9.796;2023-07-30T02:10:10;100251.03;;;21.36;99.88
20368;BME280;10343;52.402;9.796;2023-07-30T02:12:39;100250.22;;;21.23;99.74
20368;BME280;10343;52.402;9.796;2023-07-30T02:15:08;100246.69;;;21.46;98.49
20368;BME280;10343;52.402;9.796;2023-07-30T02:17:38;100250.34;;;21.45;100.00
20368;BME280;10343;52.402;9.796;2023-07-30T02:20:08;100258.28;;;21.60;96.89
20368;BME280;10343;52.402;9.796;2023-07-30T02:22:37;100263.66;;;21.60;95.54
20368;BME280;10343;52.402;9.796;2023-07-30T02:25:05;100267.50;;;22.04;93.81
20368;BME280;10343;52.402;9.796;2023-07-30T02:27:35;100273.22;;;21.88;92.81
20368;BME280;10343;52.402;9.796;2023-07-30T02:30:04;100274.28;;;21.74;92.46
20368;BME280;10343;52.402;9.796;2023-07-30T02:32:34;100269.28;;;21.57;91.67
20368;BME280;10343;52.402;9.796;2023-07-30T02:35:05;100272.28;;;21.16;93.83
20368;BME280;10343;52.402;9.796;2023-07-30T02:37:33;100270.72;;;21.49;91.60
20368;BME280;10343;52.402;9.796;2023-07-30T02:40:01;100266.78;;;21.78;93.65
20368;BME280;10343;52.402;9.796;2023-07-30T02:42:32;100275.47;;;21.46;89.32
20368;BME280;10343;52.402;9.796;2023-07-30T02:45:03;100276.09;;;21.01;90.71
20368;BME280;10343;52.402;9.796;2023-07-30T02:47:32;100271.50;;;21.14;91.78
20368;BME280;10343;52.402;9.796;2023-07-30T02:50:01;100276.69;;;20.80;89.76
20368;BME280;10343;52.402;9.796;2023-07-30T02:52:29;100281.25;;;21.04;86.74
20368;BME280;10343;52.402;9.796;2023-07-30T02:54:57;100285.31;;;20.85;87.33
20368;BME280;10343;52.402;9.796;2023-07-30T02:57:27;100280.72;;;21.12;85.49
20368;BME280;10343;52.402;9.796;2023-07-30T02:59:56;100285.56;;;21.31;86.94
20368;BME280;10343;52.402;9.796;2023-07-30T03:02:26;100290.09;;;20.69;84.45
20368;BME280;10343;52.402;9.796;2023-07-30T03:04:55;100288.09;;;20.97;87.12
20368;BME280;10343;52.402;9.796;2023-07-30T03:07:24;100283.72;;;21.07;83.74
20368;BME280;10343;52.402;9.796;2023-07-30T03:09:54;100291.59;;;21.10;79.99
20368;BME280;10343;52.402;9.796;2023-07-30T03:12:22;100301.16;;;21.14;77.82
20368;BME280;10343;52.402;9.796;2023-07-30T03:14:50;100301.81;;;21.18;76.88
20368;BME280;10343;52.402;9.796;2023-07-30T03:17:18;100307.38;;;21.28;77.45
20368;BME280;10343;52.402;9.796;2023-07-30T03:19:47;100307.38;;;21.28;76.18
20368;BME280;10343;52.402;9.796;2023-07-30T03:22:15;100314.19;;;21.58;74.44
20368;BME280;10343;52.402;9.796;2023-07-30T03:24:46;100304.81;;;21.50;76.75
20368;BME280;10343;52.402;9.796;2023-07-30T03:27:14;100307.50;;;21.50;74.39
20368;BME280;10343;52.402;9.796;2023-07-30T03:29:42;100313.88;;;21.74;73.01
20368;BME280;10343;52.402;9.796;2023-07-30T03:32:11;100313.94;;;21.61;73.88
20368;BME280;10343;52.402;9.796;2023-07-30T03:34:47;100314.13;;;21.33;75.35
20368;BME280;10343;52.402;9.796;2023-07-30T03:37:15;100309.09;;;21.29;76.27
20368;BME280;10343;52.402;9.796;2023-07-30T03:39:46;100310.41;;;21.23;77.62
20368;BME280;10343;52.402;9.796;2023-07-30T03:42:16;100309.91;;;21.42;78.16
20368;BME280;10343;52.402;9.796;2023-07-30T03:44:44;100309.69;;;21.45;76.70
20368;BME280;10343;52.402;9.796;2023-07-30T03:47:12;100313.34;;;21.44;75.50
20368;BME280;10343;52.402;9.796;2023-07-30T03:49:43;100315.44;;;21.28;75.54
20368;BME280;10343;52.402;9.796;2023-07-30T03:52:14;100314.09;;;21.46;78.24
20368;BME280;10343;52.402;9.796;2023-07-30T03:54:43;100322.50;;;21.17;78.80
20368;BME280;10343;52.402;9.796;2023-07-30T03:57:12;100321.03;;;21.13;79.63
20368;BME280;10343;52.402;9.796;2023-07-30T03:59:47;100324.53;;;20.90;79.23
20368;BME280;10343;52.402;9.796;2023-07-30T04:02:15;100319.94;;;21.03;80.81
20368;BME280;10343;52.402;9.796;2023-07-30T04:04:43;100328.56;;;21.08;79.18
20368;BME280;10343;52.402;9.796;2023-07-30T04:07:12;100326.16;;;20.79;79.92
20368;BME280;10343;52.402;9.796;2023-07-30T04:09:41;100329.03;;;21.02;79.56
20368;BME280;10343;52.402;9.796;2023-07-30T04:12:09;100324.59;;;21.38;78.14
20368;BME280;10343;52.402;9.796;2023-07-30T04:14:37;100329.41;;;21.21;78.95
20368;BME280;10343;52.402;9.796;2023-07-30T04:17:06;100328.44;;;21.47;77.22
20368;BME280;10343;52.402;9.796;2023-07-30T04:19:34;100332.09;;;21.46;78.39
20368;BME280;10343;52.402;9.796;2023-07-30T04:22:03;100335.53;;;21.61;77.59
20368;BME280;10343;52.402;9.796;2023-07-30T04:24:31;100334.50;;;21.86;76.58
20368;BME280;10343;52.402;9.796;2023-07-30T04:27:01;100340.53;;;22.25;74.21
20368;BME280;10343;52.402;9.796;2023-07-30T04:29:30;100339.75;;;22.12;72.50
20368;BME280;10343;52.402;9.796;2023-07-30T04:32:00;100345.16;;;21.76;73.22
20368;BME280;10343;52.402;9.796;2023-07-30T04:34:28;100340.38;;;21.55;75.41
20368;BME280;10343;52.402;9.796;2023-07-30T04:36:57;100343.38;;;21.27;77.28
20368;BME280;10343;52.402;9.796;2023-07-30T04:39:26;100343.13;;;21.43;77.78
20368;BME280;10343;52.402;9.796;2023-07-30T04:41:54;100337.31;;;21.36;77.28
20368;BME280;10343;52.402;9.796;2023-07-30T04:44:24;100332.81;;;21.36;77.41
20368;BME280;10343;52.402;9.796;2023-07-30T04:46:54;100343.69;;;21.35;77.82
20368;BME280;10343;52.402;9.796;2023-07-30T04:49:23;100349.03;;;21.96;75.33
20368;BME280;10343;52.402;9.796;2023-07-30T04:51:54;100342.63;;;21.62;75.39
20368;BME280;10343;52.402;9.796;2023-07-30T04:54:24;100344.53;;;21.73;76.96
20368;BME280;10343;52.402;9.796;2023-07-30T04:56:53;100343.25;;;21.41;77.36
20368;BME280;10343;52.402;9.796;2023-07-30T04:59:43;100337.97;;;21.64;77.63
20368;BME280;10343;52.402;9.796;2023-07-30T05:02:11;100337.25;;;21.62;77.77
20368;BME280;10343;52.402;9.796;2023-07-30T05:04:39;100342.28;;;21.29;80.26
20368;BME280;10343;52.402;9.796;2023-07-30T05:07:07;100340.53;;;21.41;79.83
20368;BME280;10343;52.402;9.796;2023-07-30T05:09:43;100331.63;;;21.65;79.04
20368;BME280;10343;52.402;9.796;2023-07-30T05:12:11;100339.19;;;21.60;78.49
20368;BME280;10343;52.402;9.796;2023-07-30T05:14:43;100333.69;;;21.97;78.65
20368;BME280;10343;52.402;9.796;2023-07-30T05:17:11;100341.03;;;21.83;76.65
20368;BME280;10343;52.402;9.796;2023-07-30T05:19:41;100342.06;;;22.05;76.18
20368;BME280;10343;52.402;9.796;2023-07-30T05:22:09;100340.38;;;21.80;76.74
20368;BME280;10343;52.402;9.796;2023-07-30T05:24:37;100342.81;;;22.07;76.25
20368;BME280;10343;52.402;9.796;2023-07-30T05:27:05;100346.72;;;22.03;75.96
20368;BME280;10343;52.402;9.796;2023-07-30T05:29:33;100348.34;;;22.41;72.96
20368;BME280;10343;52.402;9.796;2023-07-30T05:32:03;100345.66;;;22.17;75.38
20368;BME280;10343;52.402;9.796;2023-07-30T05:34:31;100356.59;;;22.27;74.51
20368;BME280;10343;52.402;9.796;2023-07-30T05:36:59;100352.84;;;22.05;75.68
20368;BME280;10343;52.402;9.796;2023-07-30T05:39:27;100357.84;;;21.98;75.47
20368;BME280;10343;52.402;9.796;2023-07-30T05:41:55;100353.22;;;22.36;74.23
20368;BME280;10343;52.402;9.796;2023-07-30T05:44:24;100357.44;;;22.74;70.02
20368;BME280;10343;52.402;9.796;2023-07-30T05:46:52;100348.00;;;22.80;69.63
20368;BME280;10343;52.402;9.796;2023-07-30T05:49:22;100340.72;;;23.03;67.97
20368;BME280;10343;52.402;9.796;2023-07-30T05:51:54;100344.44;;;22.68;69.36
20368;BME280;10343;52.402;9.796;2023-07-30T05:54:22;100342.31;;;22.94;67.87
20368;BME280;10343;52.402;9.796;2023-07-30T05:56:52;100349.69;;;22.81;66.60
20368;BME280;10343;52.402;9.796;2023-07-30T05:59:21;100353.75;;;22.75;67.88
20368;BME280;10343;52.402;9.796;2023-07-30T06:01:56;100351.06;;;22.64;67.48
20368;BME280;10343;52.402;9.796;2023-07-30T06:04:25;100351.19;;;22.62;66.74
20368;BME280;10343;52.402;9.796;2023-07-30T06:06:53;100352.13;;;22.38;67.71
20368;BME280;10343;52.402;9.796;2023-07-30T06:09:22;100349.56;;;22.60;66.39
20368;BME280;10343;52.402;9.796;2023-07-30T06:11:50;100349.78;;;22.45;67.11
20368;BME280;10343;52.402;9.796;2023-07-30T06:14:21;100355.84;;;22.71;64.93
20368;BME280;10343;52.402;9.796;2023-07-30T06:16:49;100363.66;;;23.43;62.72
20368;BME280;10343;52.402;9.796;2023-07-30T06:19:18;100359.00;;;23.33;61.73
20368;BME280;10343;52.402;9.796;2023-07-30T06:21:47;100356.94;;;23.03;61.46
20368;BME280;10343;52.402;9.796;2023-07-30T06:24:18;100358.19;;;22.65;62.62
20368;BME280;10343;52.402;9.796;2023-07-30T06:26:46;100352.75;;;22.53;62.94
20368;BME280;10343;52.402;9.796;2023-07-30T06:29:15;100349.53;;;23.50;60.15
20368;BME280;10343;52.402;9.796;2023-07-30T06:31:45;100350.09;;;23.54;59.08
20368;BME280;10343;52.402;9.796;2023-07-30T06:34:14;100350.81;;;23.12;58.61
20368;BME280;10343;52.402;9.796;2023-07-30T06:36:42;100363.09;;;22.60;59.91
20368;BME280;10343;52.402;9.796;2023-07-30T06:39:11;100355.72;;;22.73;59.27
20368;BME280;10343;52.402;9.796;2023-07-30T06:41:39;100354.84;;;22.72;58.29
20368;BME280;10343;52.402;9.796;2023-07-30T06:44:10;100359.91;;;22.88;58.58
20368;BME280;10343;52.402;9.796;2023-07-30T06:46:38;100366.03;;;22.79;59.06
20368;BME280;10343;52.402;9.796;2023-07-30T06:49:06;100372.91;;;22.95;57.29
20368;BME280;10343;52.402;9.796;2023-07-30T06:51:36;100365.66;;;23.29;55.44
20368;BME280;10343;52.402;9.796;2023-07-30T06:54:04;100375.28;;;23.66;54.79
20368;BME280;10343;52.402;9.796;2023-07-30T06:56:34;100381.63;;;23.76;54.75
20368;BME280;10343;52.402;9.796;2023-07-30T06:59:02;100386.41;;;23.84;52.78
20368;BME280;10343;52.402;9.796;2023-07-30T07:01:30;100383.09;;;23.80;51.50
20368;BME280;10343;52.402;9.796;2023-07-30T07:03:59;100377.91;;;24.00;51.39
20368;BME280;10343;52.402;9.796;2023-07-30T07:06:29;100384.34;;;23.76;51.29
20368;BME280;10343;52.402;9.796;2023-07-30T07:09:00;100382.25;;;23.47;51.30
20368;BME280;10343;52.402;9.796;2023-07-30T07:11:29;100389.00;;;23.53;51.70
20368;BME280;10343;52.402;9.796;2023-07-30T07:14:00;100382.34;;;23.57;51.26
20368;BME280;10343;52.402;9.796;2023-07-30T07:16:29;100387.78;;;23.89;50.29
20368;BME280;10343;52.402;9.796;2023-07-30T07:19:00;100387.44;;;23.71;50.66
20368;BME280;10343;52.402;9.796;2023-07-30T07:21:29;100393.91;;;24.24;50.26
20368;BME280;10343;52.402;9.796;2023-07-30T07:24:00;100388.34;;;23.61;50.45
20368;BME280;10343;52.402;9.796;2023-07-30T07:26:37;100389.38;;;23.37;51.83
20368;BME280;10343;52.402;9.796;2023-07-30T07:29:13;100404.03;;;23.89;50.23
20368;BME280;10343;52.402;9.796;2023-07-30T07:31:45;100403.63;;;23.50;49.89
20368;BME280;10343;52.402;9.796;2023-07-30T07:34:16;100408.03;;;22.95;51.61
20368;BME280;10343;52.402;9.796;2023-07-30T07:36:54;100401.44;;;23.10;51.90
20368;BME280;10343;52.402;9.796;2023-07-30T07:39:24;100399.16;;;23.61;51.31
20368;BME280;10343;52.402;9.796;2023-07-30T07:41:56;100403.53;;;23.96;49.90
20368;BME280;10343;52.402;9.796;2023-07-30T07:44:38;100397.25;;;23.84;50.33
20368;BME280;10343;52.402;9.796;2023-07-30T07:47:09;100407.72;;;23.88;49.84
20368;BME280;10343;52.402;9.796;2023-07-30T07:49:42;100400.06;;;23.94;49.27
20368;BME280;10343;52.402;9.796;2023-07-30T07:52:10;100398.00;;;23.86;49.07
20368;BME280;10343;52.402;9.796;2023-07-30T07:54:42;100395.06;;;24.10;48.92
20368;BME280;10343;52.402;9.796;2023-07-30T07:57:17;100396.41;;;24.58;47.39
20368;BME280;10343;52.402;9.796;2023-07-30T07:59:49;100397.69;;;25.06;46.38
20368;BME280;10343;52.402;9.796;2023-07-30T08:02:22;100389.25;;;24.57;46.38
20368;BME280;10343;52.402;9.796;2023-07-30T08:04:51;100392.84;;;24.57;47.27
20368;BME280;10343;52.402;9.796;2023-07-30T08:07:20;100387.53;;;25.39;45.55
20368;BME280;10343;52.402;9.796;2023-07-30T08:09:52;100394.72;;;25.59;44.90
20368;BME280;10343;52.402;9.796;2023-07-30T08:12:27;100391.88;;;25.51;45.07
20368;BME280;10343;52.402;9.796;2023-07-30T08:15:00;100389.56;;;25.06;44.69
20368;BME280;10343;52.402;9.796;2023-07-30T08:17:39;100391.59;;;25.74;43.42
20368;BME280;10343;52.402;9.796;2023-07-30T08:20:12;100396.72;;;25.57;43.93
20368;BME280;10343;52.402;9.796;2023-07-30T08:22:43;100400.16;;;25.59;44.38
20368;BME280;10343;52.402;9.796;2023-07-30T08:25:14;100402.47;;;24.92;45.40
20368;BME280;10343;52.402;9.796;2023-07-30T08:27:44;100398.91;;;24.92;44.85
20368;BME280;10343;52.402;9.796;2023-07-30T08:30:21;100399.06;;;24.90;45.84
20368;BME280;10343;52.402;9.796;2023-07-30T08:32:49;100391.59;;;24.83;45.91
20368;BME280;10343;52.402;9.796;2023-07-30T08:35:18;100397.75;;;24.64;46.44
20368;BME280;10343;52.402;9.796;2023-07-30T08:37:46;100385.31;;;25.23;44.82
20368;BME280;10343;52.402;9.796;2023-07-30T08:40:14;100395.41;;;25.11;45.77
20368;BME280;10343;52.402;9.796;2023-07-30T08:42:45;100385.19;;;26.34;43.62
20368;BME280;10343;52.402;9.796;2023-07-30T08:45:16;100381.34;;;26.07;43.08
20368;BME280;10343;52.402;9.796;2023-07-30T08:47:49;100377.34;;;26.11;43.25
20368;BME280;10343;52.402;9.796;2023-07-30T08:50:18;100379.91;;;26.22;43.36
20368;BME280;10343;52.402;9.796;2023-07-30T08:52:46;100365.47;;;26.89;42.09
20368;BME280;10343;52.402;9.796;2023-07-30T08:55:16;100379.53;;;26.65;42.45
20368;BME280;10343;52.402;9.796;2023-07-30T08:57:45;100384.50;;;26.02;42.94
20368;BME280;10343;52.402;9.796;2023-07-30T09:00:15;100375.00;;;25.77;44.03
20368;BME280;10343;52.402;9.796;2023-07-30T09:02:49;100380.16;;;26.39;42.72
20368;BME280;10343;52.402;9.796;2023-07-30T09:05:19;100378.78;;;26.15;43.04
20368;BME280;10343;52.402;9.796;2023-07-30T09:07:51;100370.47;;;25.97;43.32
20368;BME280;10343;52.402;9.796;2023-07-30T09:10:21;100377.59;;;26.27;43.02
20368;BME280;10343;52.402;9.796;2023-07-30T09:12:52;100379.06;;;26.12;43.21
20368;BME280;10343;52.402;9.796;2023-07-30T09:15:31;100379.34;;;26.28;43.37
20368;BME280;10343;52.402;9.796;2023-07-30T09:18:02;100390.31;;;25.78;44.32
20368;BME280;10343;52.402;9.796;2023-07-30T09:20:39;100393.00;;;26.56;43.66
20368;BME280;10343;52.402;9.796;2023-07-30T09:23:07;100384.75;;;26.38;43.16
20368;BME280;10343;52.402;9.796;2023-07-30T09:25:37;100385.06;;;26.25;43.46
20368;BME280;10343;52.402;9.796;2023-07-30T09:28:05;100383.06;;;26.18;43.57
20368;BME280;10343;52.402;9.796;2023-07-30T09:30:35;100389.34;;;26.38;43.22
20368;BME280;10343;52.402;9.796;2023-07-30T09:33:06;100397.38;;;26.87;42.01
20368;BME280;10343;52.402;9.796;2023-07-30T09:35:36;100399.69;;;27.19;41.85
20368;BME280;10343;52.402;9.796;2023-07-30T09:38:10;100393.03;;;27.32;40.98
20368;BME280;10343;52.402;9.796;2023-07-30T09:40:38;100402.75;;;27.44;40.65
20368;BME280;10343;52.402;9.796;2023-07-30T09:43:08;100404.47;;;26.70;41.93
20368;BME280;10343;52.402;9.796;2023-07-30T09:45:37;100404.34;;;27.65;40.95
20368;BME280;10343;52.402;9.796;2023-07-30T09:48:18;100410.59;;;28.11;39.85
20368;BME280;10343;52.402;9.796;2023-07-30T09:50:47;100407.19;;;28.09;39.26
20368;BME280;10343;52.402;9.796;2023-07-30T09:53:19;100405.09;;;27.93;39.47
20368;BME280;10343;52.402;9.796;2023-07-30T09:55:50;100416.66;;;27.59;40.31
20368;BME280;10343;52.402;9.796;2023-07-30T09:58:22;100420.59;;;27.74;40.26
20368;BME280;10343;52.402;9.796;2023-07-30T10:00:51;100422.34;;;27.66;39.60
20368;BME280;10343;52.402;9.796;2023-07-30T10:03:23;100430.75;;;27.54;40.70
20368;BME280;10343;52.402;9.796;2023-07-30T10:05:55;100434.47;;;27.53;40.00
20368;BME280;10343;52.402;9.796;2023-07-30T10:08:31;100428.34;;;28.15;39.33
20368;BME280;10343;52.402;9.796;2023-07-30T10:11:03;100430.66;;;28.10;39.85
20368;BME280;10343;52.402;9.796;2023-07-30T10:13:33;100435.31;;;26.69;41.85
20368;BME280;10343;52.402;9.796;2023-07-30T10:16:03;100436.53;;;26.27;43.18
20368;BME280;10343;52.402;9.796;2023-07-30T10:18:38;100437.69;;;26.24;43.35
20368;BME280;10343;52.402;9.796;2023-07-30T10:21:08;100436.81;;;26.14;43.97
20368;BME280;10343;52.402;9.796;2023-07-30T10:23:46;100447.81;;;26.03;44.02
20368;BME280;10343;52.402;9.796;2023-07-30T10:26:14;100455.91;;;25.73;44.49
20368;BME280;10343;52.402;9.796;2023-07-30T10:28:44;100462.19;;;25.74;44.47
20368;BME280;10343;52.402;9.796;2023-07-30T10:31:15;100466.91;;;25.72;45.25
20368;BME280;10343;52.402;9.796;2023-07-30T10:34:07;100476.31;;;26.38;44.32
20368;BME280;10343;52.402;9.796;2023-07-30T10:36:44;100467.22;;;26.67;43.49
20368;BME280;10343;52.402;9.796;2023-07-30T10:39:17;100478.25;;;26.75;43.86
20368;BME280;10343;52.402;9.796;2023-07-30T10:41:50;100473.59;;;27.15;42.63
20368;BME280;10343;52.402;9.796;2023-07-30T10:44:24;100475.03;;;27.09;42.46
20368;BME280;10343;52.402;9.796;2023-07-30T10:46:59;100487.00;;;26.78;42.89
20368;BME280;10343;52.402;9.796;2023-07-30T10:49:40;100477.09;;;26.97;42.48
20368;BME280;10343;52.402;9.796;2023-07-30T10:52:14;100479.69;;;26.59;43.31
20368;BME280;10343;52.402;9.796;2023-07-30T10:54:45;100475.00;;;26.22;44.57
20368;BME280;10343;52.402;9.796;2023-07-30T10:57:23;100474.88;;;26.34;44.32
20368;BME280;10343;52.402;9.796;2023-07-30T11:00:01;100473.97;;;26.62;43.95
20368;BME280;10343;52.402;9.796;2023-07-30T11:02:41;100477.16;;;26.09;44.87
20368;BME280;10343;52.402;9.796;2023-07-30T11:05:17;100483.97;;;26.03;45.81
20368;BME280;10343;52.402;9.796;2023-07-30T11:07:52;100476.56;;;25.65;47.05
20368;BME280;10343;52.402;9.796;2023-07-30T11:10:20;100477.16;;;26.19;45.91
20368;BME280;10343;52.402;9.796;2023-07-30T11:12:51;100474.09;;;25.92;45.80
20368;BME280;10343;52.402;9.796;2023-07-30T11:15:20;100473.66;;;25.97;46.15
20368;BME280;10343;52.402;9.796;2023-07-30T11:17:54;100474.13;;;25.52;47.24
20368;BME280;10343;52.402;9.796;2023-07-30T11:20:25;100476.31;;;25.68;46.65
20368;BME280;10343;52.402;9.796;2023-07-30T11:22:57;100467.38;;;25.97;45.61
20368;BME280;10343;52.402;9.796;2023-07-30T11:25:26;100472.22;;;25.83;46.06
20368;BME280;10343;52.402;9.796;2023-07-30T11:27:56;100463.97;;;26.24;45.41
20368;BME280;10343;52.402;9.796;2023-07-30T11:30:25;100465.69;;;26.15;45.01
20368;BME280;10343;52.402;9.796;2023-07-30T11:32:58;100468.09;;;26.87;44.50
20368;BME280;10343;52.402;9.796;2023-07-30T11:35:28;100470.25;;;26.73;43.66
20368;BME280;10343;52.402;9.796;2023-07-30T11:38:01;100468.56;;;26.04;45.43
20368;BME280;10343;52.402;9.796;2023-07-30T11:40:32;100463.75;;;25.76;46.02
20368;BME280;10343;52.402;9.796;2023-07-30T11:43:00;100465.25;;;26.20;45.33
20368;BME280;10343;52.402;9.796;2023-07-30T11:45:35;100459.09;;;26.47;43.80
20368;BME280;10343;52.402;9.796;2023-07-30T11:48:07;100462.00;;;26.16;43.75
20368;BME280;10343;52.402;9.796;2023-07-30T11:50:45;100460.00;;;26.38;43.78
20368;BME280;10343;52.402;9.796;2023-07-30T11:53:14;100459.69;;;26.41;43.41
20368;BME280;10343;52.402;9.796;2023-07-30T11:55:44;100459.09;;;26.47;43.46
20368;BME280;10343;52.402;9.796;2023-07-30T11:58:14;100465.06;;;25.92;44.66
20368;BME280;10343;52.402;9.796;2023-07-30T12:00:45;100457.41;;;26.07;44.57
20368;BME280;10343;52.402;9.796;2023-07-30T12:03:16;100449.97;;;26.48;43.07
20368;BME280;10343;52.402;9.796;2023-07-30T12:05:50;100444.47;;;26.87;42.99
20368;BME280;10343;52.402;9.796;2023-07-30T12:08:25;100445.59;;;26.94;42.94
20368;BME280;10343;52.402;9.796;2023-07-30T12:10:54;100445.22;;;27.17;42.19
20368;BME280;10343;52.402;9.796;2023-07-30T12:13:25;100451.81;;;26.77;43.00
20368;BME280;10343;52.402;9.796;2023-07-30T12:15:54;100443.13;;;26.05;43.24
20368;BME280;10343;52.402;9.796;2023-07-30T12:18:23;100448.81;;;26.41;41.97
20368;BME280;10343;52.402;9.796;2023-07-30T12:20:55;100448.78;;;26.60;41.61
20368;BME280;10343;52.402;9.796;2023-07-30T12:23:28;100451.53;;;26.41;42.39
20368;BME280;10343;52.402;9.796;2023-07-30T12:25:58;100448.91;;;26.88;40.86
20368;BME280;10343;52.402;9.796;2023-07-30T12:28:29;100452.31;;;27.00;41.07
20368;BME280;10343;52.402;9.796;2023-07-30T12:30:58;100443.56;;;27.44;40.53
20368;BME280;10343;52.402;9.796;2023-07-30T12:33:34;100437.63;;;27.21;40.55
20368;BME280;10343;52.402;9.796;2023-07-30T12:36:04;100435.19;;;27.18;40.71
20368;BME280;10343;52.402;9.796;2023-07-30T12:38:32;100450.03;;;26.86;39.82
20368;BME280;10343;52.402;9.796;2023-07-30T12:41:05;100441.69;;;27.07;38.96
20368;BME280;10343;52.402;9.796;2023-07-30T12:43:34;100432.63;;;27.16;39.06
20368;BME280;10343;52.402;9.796;2023-07-30T12:46:11;100426.72;;;26.93;39.59
20368;BME280;10343;52.402;9.796;2023-07-30T12:48:44;100437.28;;;27.61;37.75
20368;BME280;10343;52.402;9.796;2023-07-30T12:51:22;100423.66;;;27.06;38.14
20368;BME280;10343;52.402;9.796;2023-07-30T12:53:59;100430.97;;;26.95;38.67
20368;BME280;10343;52.402;9.796;2023-07-30T12:56:30;100425.09;;;27.38;38.06
20368;BME280;10343;52.402;9.796;2023-07-30T12:59:04;100424.41;;;27.36;37.91
20368;BME280;10343;52.402;9.796;2023-07-30T13:01:37;100418.00;;;27.17;37.99
20368;BME280;10343;52.402;9.796;2023-07-30T13:04:13;100416.66;;;27.03;38.14
20368;BME280;10343;52.402;9.796;2023-07-30T13:06:53;100427.06;;;27.08;38.08
20368;BME280;10343;52.402;9.796;2023-07-30T13:09:30;100424.69;;;26.95;38.02